createdAt,value
2018-12-21T00:00:05.838Z,31.77
2018-12-21T00:02:34.374Z,33.65
2018-12-21T00:05:02.994Z,30.57
2018-12-21T00:07:31.508Z,31.07
2018-12-21T00:10:00.049Z,31.40
2018-12-21T00:12:28.658Z,28.57
2018-12-21T00:14:57.154Z,27.75
2018-12-21T00:17:25.666Z,29.82
2018-12-21T00:19:54.181Z,32.80
2018-12-21T00:22:22.695Z,35.83
2018-12-21T00:24:51.206Z,34.55
2018-12-21T00:27:19.719Z,33.38
2018-12-21T00:29:48.229Z,35.58
2018-12-21T00:32:21.944Z,31.40
2018-12-21T00:34:55.731Z,32.00
2018-12-21T00:37:29.414Z,33.90
2018-12-21T00:40:03.135Z,30.32
2018-12-21T00:43:12.145Z,30.30
2018-12-21T00:45:44.244Z,36.88
2018-12-21T00:48:12.764Z,32.42
2018-12-21T00:50:41.266Z,27.75
2018-12-21T00:53:09.767Z,31.70
2018-12-21T00:55:38.298Z,32.10
2018-12-21T00:58:06.815Z,27.90
2018-12-21T01:00:35.322Z,43.92
2018-12-21T01:03:03.850Z,29.05
2018-12-21T01:05:32.378Z,27.87
2018-12-21T01:08:00.928Z,31.05
2018-12-21T01:10:29.573Z,31.45
2018-12-21T01:12:58.199Z,26.55
2018-12-21T01:15:26.842Z,29.45
2018-12-21T01:17:55.329Z,24.85
2018-12-21T01:20:23.824Z,29.98
2018-12-21T01:22:52.350Z,26.05
2018-12-21T01:25:20.848Z,30.60
2018-12-21T01:27:49.320Z,28.83
2018-12-21T01:30:17.871Z,29.57
2018-12-21T01:32:46.372Z,26.55
2018-12-21T01:35:14.873Z,23.70
2018-12-21T01:37:43.449Z,29.07
2018-12-21T01:40:12.121Z,26.93
2018-12-21T01:42:40.600Z,23.12
2018-12-21T01:45:09.289Z,26.45
2018-12-21T01:47:37.780Z,23.57
2018-12-21T01:50:06.329Z,22.40
2018-12-21T01:52:34.844Z,24.02
2018-12-21T01:55:03.531Z,23.98
2018-12-21T01:57:32.169Z,24.82
2018-12-21T02:00:00.654Z,23.70
2018-12-21T02:02:29.184Z,24.02
2018-12-21T02:04:57.721Z,25.32
2018-12-21T02:07:26.260Z,21.60
2018-12-21T02:09:54.785Z,21.70
2018-12-21T02:12:23.290Z,23.05
2018-12-21T02:14:51.930Z,24.45
2018-12-21T02:17:20.432Z,27.87
2018-12-21T02:19:49.550Z,22.85
2018-12-21T02:22:18.020Z,23.47
2018-12-21T02:24:46.516Z,28.38
2018-12-21T02:27:15.010Z,21.27
2018-12-21T02:29:43.504Z,21.85
2018-12-21T02:32:12.013Z,19.62
2018-12-21T02:34:40.514Z,21.90
2018-12-21T02:37:09.014Z,21.37
2018-12-21T02:39:37.520Z,19.90
2018-12-21T02:42:06.014Z,20.65
2018-12-21T02:44:34.507Z,20.32
2018-12-21T02:47:03.104Z,19.15
2018-12-21T02:49:31.611Z,19.25
2018-12-21T02:52:05.331Z,20.40
2018-12-21T02:54:30.661Z,19.20
2018-12-21T02:56:59.203Z,18.55
2018-12-21T02:59:27.721Z,17.70
2018-12-21T03:01:56.223Z,16.37
2018-12-21T03:04:24.721Z,18.85
2018-12-21T03:06:53.245Z,17.90
2018-12-21T03:09:21.718Z,19.45
2018-12-21T03:11:50.216Z,18.87
2018-12-21T03:14:18.710Z,19.85
2018-12-21T03:16:47.234Z,17.57
2018-12-21T03:19:15.720Z,18.67
2018-12-21T03:21:44.223Z,18.00
2018-12-21T03:24:12.737Z,18.10
2018-12-21T03:26:41.261Z,16.85
2018-12-21T03:29:09.786Z,20.00
2018-12-21T03:31:38.289Z,20.45
2018-12-21T03:34:06.877Z,20.77
2018-12-21T03:36:35.557Z,20.85
2018-12-21T03:39:07.234Z,18.80
2018-12-21T03:41:36.724Z,23.62
2018-12-21T03:44:05.361Z,21.85
2018-12-21T03:46:33.987Z,23.05
2018-12-21T03:49:02.490Z,22.80
2018-12-21T03:51:31.013Z,21.07
2018-12-21T03:53:59.599Z,23.35
2018-12-21T03:56:28.109Z,22.75
2018-12-21T03:58:56.594Z,22.27
2018-12-21T04:01:25.149Z,24.35
2018-12-21T04:03:53.666Z,23.77
2018-12-21T04:06:22.159Z,23.12
2018-12-21T04:08:50.658Z,24.57
2018-12-21T04:11:19.154Z,25.12
2018-12-21T04:13:47.686Z,21.00
2018-12-21T04:16:16.175Z,22.25
2018-12-21T04:18:44.669Z,21.27
2018-12-21T04:21:13.154Z,21.68
2018-12-21T04:23:41.630Z,21.70
2018-12-21T04:26:10.138Z,20.45
2018-12-21T04:28:38.631Z,21.23
2018-12-21T04:31:07.137Z,18.40
2018-12-21T04:33:35.791Z,22.17
2018-12-21T04:36:04.313Z,19.32
2018-12-21T04:38:32.796Z,21.23
2018-12-21T04:41:01.270Z,19.80
2018-12-21T04:43:29.771Z,19.40
2018-12-21T04:45:58.269Z,20.25
2018-12-21T04:48:26.773Z,18.60
2018-12-21T04:50:55.282Z,18.82
2018-12-21T04:53:23.782Z,23.92
2018-12-21T04:55:52.301Z,18.65
2018-12-21T04:58:20.796Z,20.00
2018-12-21T05:00:49.296Z,20.37
2018-12-21T05:03:17.785Z,18.85
2018-12-21T05:05:46.275Z,18.87
2018-12-21T05:08:14.827Z,20.55
2018-12-21T05:10:43.934Z,21.05
2018-12-21T05:13:12.542Z,19.67
2018-12-21T05:15:47.454Z,18.10
2018-12-21T05:18:15.949Z,17.37
2018-12-21T05:20:44.449Z,20.40
2018-12-21T05:23:12.936Z,20.30
2018-12-21T05:25:41.430Z,26.60
2018-12-21T05:28:09.932Z,18.25
2018-12-21T05:30:38.422Z,16.77
2018-12-21T05:33:06.920Z,16.62
2018-12-21T05:35:35.416Z,21.93
2018-12-21T05:38:03.898Z,19.30
2018-12-21T05:40:32.388Z,16.30
2018-12-21T05:43:00.865Z,16.05
2018-12-21T05:45:29.386Z,15.32
2018-12-21T05:47:57.986Z,16.02
2018-12-21T05:50:26.473Z,16.60
2018-12-21T05:53:00.741Z,16.52
2018-12-21T05:55:25.544Z,14.68
2018-12-21T05:57:54.027Z,16.90
2018-12-21T06:00:22.522Z,15.68
2018-12-21T06:02:51.015Z,15.00
2018-12-21T06:05:19.494Z,15.58
2018-12-21T06:07:47.974Z,15.98
2018-12-21T06:10:16.508Z,16.48
2018-12-21T06:12:45.009Z,14.55
2018-12-21T06:15:13.632Z,14.75
2018-12-21T06:17:42.152Z,14.83
2018-12-21T06:20:10.644Z,15.70
2018-12-21T06:22:39.205Z,17.23
2018-12-21T06:25:07.714Z,14.70
2018-12-21T06:27:36.235Z,15.70
2018-12-21T06:30:05.512Z,20.52
2018-12-21T06:32:34.006Z,14.13
2018-12-21T06:35:02.512Z,16.70
2018-12-21T06:37:31.027Z,18.10
2018-12-21T06:39:59.510Z,18.23
2018-12-21T06:42:28.012Z,15.15
2018-12-21T06:44:56.525Z,13.48
2018-12-21T06:47:25.002Z,12.90
2018-12-21T06:49:53.488Z,13.22
2018-12-21T06:52:21.977Z,14.87
2018-12-21T06:54:50.459Z,13.80
2018-12-21T06:57:18.975Z,13.72
2018-12-21T06:59:47.467Z,12.37
2018-12-21T07:02:15.960Z,11.78
2018-12-21T07:04:44.476Z,12.30
2018-12-21T07:07:12.973Z,11.97
2018-12-21T07:09:41.463Z,14.73
2018-12-21T07:12:09.959Z,11.55
2018-12-21T07:14:38.455Z,13.25
2018-12-21T07:17:06.965Z,10.98
2018-12-21T07:19:35.473Z,13.18
2018-12-21T07:22:03.959Z,12.90
2018-12-21T07:24:32.448Z,13.05
2018-12-21T07:27:01.085Z,14.68
2018-12-21T07:29:29.564Z,12.15
2018-12-21T07:31:58.044Z,14.28
2018-12-21T07:34:26.538Z,15.68
2018-12-21T07:36:55.077Z,12.82
2018-12-21T07:39:23.690Z,13.75
2018-12-21T07:41:52.234Z,11.83
2018-12-21T07:44:20.748Z,13.20
2018-12-21T07:46:49.211Z,15.75
2018-12-21T07:49:17.718Z,11.83
2018-12-21T07:51:46.233Z,11.48
2018-12-21T07:54:14.726Z,12.70
2018-12-21T07:56:43.260Z,15.05
2018-12-21T07:59:11.773Z,10.58
2018-12-21T08:01:40.271Z,9.85
2018-12-21T08:04:08.765Z,10.65
2018-12-21T08:06:37.251Z,11.10
2018-12-21T08:09:07.252Z,10.08
2018-12-21T08:11:35.772Z,10.28
2018-12-21T08:14:04.290Z,11.80
2018-12-21T08:16:32.807Z,11.50
2018-12-21T08:19:01.326Z,13.10
2018-12-21T08:21:29.828Z,13.62
2018-12-21T08:23:58.310Z,10.60
2018-12-21T08:26:26.798Z,13.10
2018-12-21T08:28:55.277Z,10.53
2018-12-21T08:31:23.775Z,10.45
2018-12-21T08:33:52.279Z,17.40
2018-12-21T08:36:20.788Z,11.18
2018-12-21T08:38:49.320Z,13.10
2018-12-21T08:41:17.810Z,15.90
2018-12-21T08:43:46.326Z,14.70
2018-12-21T08:46:14.812Z,11.65
2018-12-21T08:48:43.300Z,13.25
2018-12-21T08:51:11.933Z,15.25
2018-12-21T08:53:40.444Z,14.85
2018-12-21T08:56:09.096Z,14.03
2018-12-21T08:58:37.590Z,12.30
2018-12-21T09:01:06.062Z,13.08
2018-12-21T09:03:34.550Z,13.50
2018-12-21T09:06:03.050Z,11.48
2018-12-21T09:08:31.543Z,14.20
2018-12-21T09:11:00.036Z,12.40
2018-12-21T09:13:28.553Z,15.50
2018-12-21T09:15:57.056Z,11.48
2018-12-21T09:18:25.558Z,14.83
2018-12-21T09:20:54.042Z,12.93
2018-12-21T09:23:22.557Z,10.25
2018-12-21T09:25:51.068Z,11.08
2018-12-21T09:28:19.558Z,9.48
2018-12-21T09:30:48.076Z,9.43
2018-12-21T09:33:16.650Z,10.48
2018-12-21T09:35:45.243Z,9.28
2018-12-21T09:38:13.848Z,8.50
2018-12-21T09:40:42.345Z,9.25
2018-12-21T09:43:10.848Z,10.65
2018-12-21T09:45:39.341Z,10.40
2018-12-21T09:48:07.826Z,12.20
2018-12-21T09:50:36.340Z,10.20
2018-12-21T09:53:05.157Z,10.28
2018-12-21T09:55:33.754Z,12.40
2018-12-21T09:58:02.243Z,11.65
2018-12-21T10:00:30.740Z,11.25
2018-12-21T10:02:59.205Z,13.50
2018-12-21T10:05:27.852Z,10.72
2018-12-21T10:07:56.341Z,10.98
2018-12-21T10:10:24.882Z,10.38
2018-12-21T10:12:53.557Z,10.70
2018-12-21T10:15:22.149Z,10.65
2018-12-21T10:17:50.644Z,11.22
2018-12-21T10:20:19.975Z,10.35
2018-12-21T10:22:48.697Z,10.13
2018-12-21T10:25:17.177Z,9.10
2018-12-21T10:27:45.674Z,10.03
2018-12-21T10:30:14.292Z,10.20
2018-12-21T10:32:42.785Z,9.73
2018-12-21T10:35:11.306Z,11.08
2018-12-21T10:37:39.814Z,10.28
2018-12-21T10:40:08.875Z,10.15
2018-12-21T10:42:37.385Z,10.00
2018-12-21T10:45:06.699Z,10.00
2018-12-21T10:47:35.210Z,14.30
2018-12-21T10:50:04.174Z,14.98
2018-12-21T10:52:32.873Z,20.02
2018-12-21T10:55:01.487Z,12.35
2018-12-21T10:57:30.069Z,9.00
2018-12-21T10:59:58.567Z,8.98
2018-12-21T11:02:27.037Z,8.63
2018-12-21T11:04:55.515Z,10.10
2018-12-21T11:07:24.004Z,11.18
2018-12-21T11:09:52.501Z,11.00
2018-12-21T11:12:21.008Z,11.63
2018-12-21T11:14:49.495Z,9.75
2018-12-21T11:17:17.998Z,10.08
2018-12-21T11:19:46.483Z,9.30
2018-12-21T11:22:15.054Z,8.83
2018-12-21T11:24:43.574Z,10.75
2018-12-21T11:27:12.173Z,13.05
2018-12-21T11:29:40.644Z,8.98
2018-12-21T11:32:09.367Z,10.78
2018-12-21T11:34:37.846Z,9.98
2018-12-21T11:37:07.846Z,10.43
2018-12-21T11:39:36.368Z,10.40
2018-12-21T11:42:04.842Z,9.75
2018-12-21T11:44:33.349Z,9.98
2018-12-21T11:47:01.856Z,11.03
2018-12-21T11:49:30.344Z,11.10
2018-12-21T11:51:58.869Z,10.93
2018-12-21T11:54:27.351Z,26.25
2018-12-21T11:56:56.036Z,14.10
2018-12-21T11:59:24.517Z,10.50
2018-12-21T12:01:53.033Z,9.08
2018-12-21T12:04:21.550Z,9.70
2018-12-21T12:06:50.034Z,9.68
2018-12-21T12:09:18.522Z,9.88
2018-12-21T12:11:47.003Z,11.45
2018-12-21T12:14:15.648Z,11.63
2018-12-21T12:16:44.153Z,12.43
2018-12-21T12:19:12.663Z,11.90
2018-12-21T12:21:41.203Z,15.28
2018-12-21T12:24:09.694Z,12.90
2018-12-21T12:26:44.413Z,12.63
2018-12-21T12:29:08.682Z,27.48
2018-12-21T12:31:37.322Z,172.02
2018-12-21T12:34:05.839Z,60.35
2018-12-21T12:36:34.809Z,48.48
2018-12-21T12:39:04.628Z,49.13
2018-12-21T12:41:33.197Z,12.33
2018-12-21T12:44:01.756Z,11.75
2018-12-21T12:46:30.271Z,12.03
2018-12-21T12:48:58.870Z,11.88
2018-12-21T12:51:27.419Z,11.95
2018-12-21T12:53:55.957Z,16.17
2018-12-21T12:56:24.548Z,13.85
2018-12-21T12:58:53.038Z,14.55
2018-12-21T13:01:21.594Z,10.63
2018-12-21T13:03:50.078Z,9.30
2018-12-21T13:06:18.608Z,11.70
2018-12-21T13:08:47.087Z,10.15
2018-12-21T13:11:15.595Z,9.55
2018-12-21T13:13:44.170Z,9.23
2018-12-21T13:16:12.813Z,8.48
2018-12-21T13:18:41.415Z,9.98
2018-12-21T13:21:09.932Z,7.80
2018-12-21T13:23:38.436Z,8.15
2018-12-21T13:26:06.944Z,7.28
2018-12-21T13:28:35.569Z,7.50
2018-12-21T13:31:04.189Z,6.62
2018-12-21T13:33:32.715Z,7.15
2018-12-21T13:36:01.216Z,6.95
2018-12-21T13:38:29.884Z,6.80
2018-12-21T13:40:58.394Z,6.58
2018-12-21T13:43:26.902Z,4.35
2018-12-21T13:45:55.368Z,4.75
2018-12-21T13:48:23.880Z,4.97
2018-12-21T13:50:52.382Z,4.40
2018-12-21T13:53:20.851Z,3.50
2018-12-21T13:55:49.354Z,4.50
2018-12-21T13:58:17.882Z,5.45
2018-12-21T14:00:46.369Z,4.53
2018-12-21T14:03:14.871Z,3.58
2018-12-21T14:05:43.360Z,5.00
2018-12-21T14:08:11.837Z,4.47
2018-12-21T14:10:40.398Z,4.33
2018-12-21T14:13:09.021Z,4.58
2018-12-21T14:15:37.539Z,6.47
2018-12-21T14:18:06.038Z,3.35
2018-12-21T14:20:34.678Z,5.45
2018-12-21T14:23:03.201Z,2.50
2018-12-21T14:25:31.730Z,5.08
2018-12-21T14:28:00.230Z,3.22
2018-12-21T14:30:29.702Z,4.40
2018-12-21T14:32:58.237Z,4.42
2018-12-21T14:35:26.864Z,4.80
2018-12-21T14:37:55.415Z,4.50
2018-12-21T14:40:23.932Z,3.60
2018-12-21T14:42:52.466Z,4.47
2018-12-21T14:45:21.064Z,4.95
2018-12-21T14:47:49.650Z,8.48
2018-12-21T14:50:18.147Z,6.55
2018-12-21T14:52:46.733Z,8.60
2018-12-21T14:55:15.222Z,6.37
2018-12-21T14:57:43.766Z,6.10
2018-12-21T15:00:13.776Z,4.47
2018-12-21T15:02:43.108Z,5.67
2018-12-21T15:05:11.666Z,4.15
2018-12-21T15:07:40.199Z,8.65
2018-12-21T15:10:10.192Z,4.30
2018-12-21T15:12:38.720Z,3.95
2018-12-21T15:15:08.582Z,4.10
2018-12-21T15:17:37.152Z,3.75
2018-12-21T15:20:09.172Z,2.52
2018-12-21T15:22:37.699Z,2.62
2018-12-21T15:25:06.856Z,2.60
2018-12-21T15:27:35.363Z,3.05
2018-12-21T15:30:05.687Z,2.80
2018-12-21T15:32:34.343Z,2.08
2018-12-21T15:35:02.881Z,1.40
2018-12-21T15:37:31.647Z,1.55
2018-12-21T15:40:00.347Z,2.17
2018-12-21T15:42:28.922Z,2.45
2018-12-21T15:44:57.445Z,1.72
2018-12-21T15:47:25.951Z,1.50
2018-12-21T15:49:54.466Z,1.32
2018-12-21T15:52:22.949Z,1.57
2018-12-21T15:54:51.457Z,2.35
2018-12-21T15:57:19.964Z,1.77
2018-12-21T15:59:48.476Z,1.70
2018-12-21T16:02:16.990Z,1.30
2018-12-21T16:04:45.483Z,2.27
2018-12-21T16:07:14.032Z,1.65
2018-12-21T16:09:42.533Z,1.90
2018-12-21T16:12:11.038Z,1.90
2018-12-21T16:14:39.613Z,1.47
2018-12-21T16:17:08.132Z,1.42
2018-12-21T16:19:36.794Z,1.10
2018-12-21T16:22:05.542Z,1.80
2018-12-21T16:24:34.085Z,1.00
2018-12-21T16:27:02.627Z,2.10
2018-12-21T16:29:31.135Z,1.50
2018-12-21T16:31:59.993Z,1.75
2018-12-21T16:34:28.533Z,1.55
2018-12-21T16:36:57.075Z,1.42
2018-12-21T16:39:25.590Z,1.32
2018-12-21T16:41:54.078Z,2.15
2018-12-21T16:44:22.753Z,1.70
2018-12-21T16:46:51.272Z,1.45
2018-12-21T16:49:19.797Z,1.70
2018-12-21T16:51:48.434Z,2.30
2018-12-21T16:54:18.167Z,1.70
2018-12-21T16:56:46.695Z,2.05
2018-12-21T16:59:15.267Z,2.45
2018-12-21T17:01:43.785Z,2.20
2018-12-21T17:04:12.293Z,2.52
2018-12-21T17:06:41.950Z,3.50
2018-12-21T17:09:10.450Z,4.30
2018-12-21T17:11:38.974Z,3.60
2018-12-21T17:14:07.897Z,5.22
2018-12-21T17:16:36.488Z,4.40
2018-12-21T17:19:14.278Z,5.25
2018-12-21T17:21:42.847Z,4.45
2018-12-21T17:24:11.353Z,5.42
2018-12-21T17:26:39.848Z,5.53
2018-12-21T17:29:08.416Z,4.12
2018-12-21T17:31:36.983Z,2.10
2018-12-21T17:34:05.606Z,4.30
2018-12-21T17:36:34.151Z,3.42
2018-12-21T17:39:03.310Z,4.80
2018-12-21T17:41:31.841Z,5.30
2018-12-21T17:44:00.351Z,7.47
2018-12-21T17:46:28.893Z,6.33
2018-12-21T17:48:57.548Z,7.62
2018-12-21T17:51:26.213Z,5.78
2018-12-21T17:53:54.856Z,6.20
2018-12-21T17:56:29.834Z,6.47
2018-12-21T17:58:53.961Z,6.53
2018-12-21T18:01:22.876Z,8.40
2018-12-21T18:04:00.652Z,5.90
2018-12-21T18:06:29.176Z,10.20
2018-12-21T18:08:57.667Z,7.87
2018-12-21T18:11:26.184Z,7.72
2018-12-21T18:13:54.701Z,6.28
2018-12-21T18:16:23.231Z,9.80
2018-12-21T18:18:51.811Z,6.12
2018-12-21T18:21:20.439Z,19.57
2018-12-21T18:23:49.221Z,8.03
2018-12-21T18:26:17.763Z,9.58
2018-12-21T18:28:46.273Z,7.03
2018-12-21T18:31:21.878Z,8.38
2018-12-21T18:33:50.448Z,7.37
2018-12-21T18:36:18.988Z,7.90
2018-12-21T18:38:47.669Z,5.62
2018-12-21T18:41:16.405Z,4.50
2018-12-21T18:43:44.923Z,6.80
2018-12-21T18:46:13.470Z,5.40
2018-12-21T18:48:41.996Z,10.13
2018-12-21T18:51:10.546Z,10.50
2018-12-21T18:53:39.063Z,7.87
2018-12-21T18:56:11.803Z,8.10
2018-12-21T18:58:40.386Z,8.18
2018-12-21T19:01:08.903Z,8.33
2018-12-21T19:03:37.397Z,8.60
2018-12-21T19:06:05.965Z,8.73
2018-12-21T19:08:34.480Z,9.65
2018-12-21T19:11:02.983Z,9.48
2018-12-21T19:13:31.532Z,5.80
2018-12-21T19:16:00.056Z,9.65
2018-12-21T19:18:28.617Z,9.70
2018-12-21T19:20:57.126Z,4.08
2018-12-21T19:23:25.631Z,11.53
2018-12-21T19:25:54.989Z,9.53
2018-12-21T19:28:23.483Z,10.68
2018-12-21T19:30:52.004Z,9.63
2018-12-21T19:33:20.616Z,10.40
2018-12-21T19:35:49.117Z,11.88
2018-12-21T19:38:17.708Z,11.55
2018-12-21T19:40:46.304Z,13.75
2018-12-21T19:43:14.914Z,11.18
2018-12-21T19:45:43.494Z,8.65
2018-12-21T19:48:12.190Z,9.50
2018-12-21T19:50:40.834Z,10.43
2018-12-21T19:53:09.417Z,9.13
2018-12-21T19:55:54.538Z,11.28
2018-12-21T19:58:23.170Z,10.23
2018-12-21T20:00:51.767Z,10.13
2018-12-21T20:03:20.298Z,11.25
2018-12-21T20:05:48.855Z,9.83
2018-12-21T20:08:17.408Z,10.48
2018-12-21T20:10:45.921Z,8.85
2018-12-21T20:13:14.450Z,6.78
2018-12-21T20:15:42.966Z,7.87
2018-12-21T20:18:11.575Z,7.95
2018-12-21T20:20:40.401Z,8.33
2018-12-21T20:23:09.006Z,7.60
2018-12-21T20:25:37.661Z,8.00
2018-12-21T20:28:07.138Z,8.60
2018-12-21T20:30:36.836Z,8.88
2018-12-21T20:33:05.822Z,7.47
2018-12-21T20:35:34.324Z,8.28
2018-12-21T20:38:03.386Z,8.65
2018-12-21T20:40:31.996Z,6.80
2018-12-21T20:43:00.508Z,7.90
2018-12-21T20:45:29.106Z,8.03
2018-12-21T20:47:57.673Z,6.83
2018-12-21T20:50:26.373Z,6.72
2018-12-21T20:52:54.897Z,7.67
2018-12-21T20:55:23.464Z,8.70
2018-12-21T20:57:55.965Z,7.28
2018-12-21T21:00:24.558Z,4.00
2018-12-21T21:02:53.080Z,5.80
2018-12-21T21:05:21.666Z,7.20
2018-12-21T21:07:50.218Z,6.47
2018-12-21T21:10:18.727Z,7.03
2018-12-21T21:12:47.207Z,6.60
2018-12-21T21:15:15.706Z,6.75
2018-12-21T21:17:44.239Z,7.33
2018-12-21T21:20:14.756Z,6.28
2018-12-21T21:22:43.347Z,5.60
2018-12-21T21:25:11.937Z,6.65
2018-12-21T21:27:40.524Z,6.90
2018-12-21T21:30:12.727Z,6.50
2018-12-21T21:32:41.267Z,7.55
2018-12-21T21:35:09.906Z,5.95
2018-12-21T21:37:38.443Z,5.87
2018-12-21T21:40:10.355Z,6.65
2018-12-21T21:42:38.877Z,4.22
2018-12-21T21:45:07.549Z,4.22
2018-12-21T21:47:36.187Z,4.05
2018-12-21T21:50:05.584Z,4.25
2018-12-21T21:52:34.096Z,4.20
2018-12-21T21:55:02.609Z,4.15
2018-12-21T21:57:38.955Z,5.12
2018-12-21T22:00:01.698Z,4.97
2018-12-21T22:02:30.181Z,5.30
2018-12-21T22:04:58.672Z,4.53
2018-12-21T22:07:27.167Z,4.30
2018-12-21T22:09:55.646Z,3.80
2018-12-21T22:12:24.127Z,3.35
2018-12-21T22:14:52.642Z,3.02
2018-12-21T22:17:21.222Z,3.65
2018-12-21T22:19:49.885Z,3.27
2018-12-21T22:22:18.468Z,3.33
2018-12-21T22:24:47.002Z,2.62
2018-12-21T22:27:15.533Z,2.65
2018-12-21T22:29:44.071Z,3.60
2018-12-21T22:32:12.565Z,2.80
2018-12-21T22:34:41.050Z,2.65
2018-12-21T22:37:09.536Z,2.90
2018-12-21T22:39:38.130Z,1.98
2018-12-21T22:42:06.602Z,2.25
2018-12-21T22:44:35.111Z,2.83
2018-12-21T22:47:03.615Z,2.58
2018-12-21T22:49:32.107Z,2.98
2018-12-21T22:52:00.578Z,2.22
2018-12-21T22:54:29.059Z,2.10
2018-12-21T22:56:57.561Z,2.80
2018-12-21T22:59:26.216Z,1.67
2018-12-21T23:01:54.814Z,2.90
2018-12-21T23:04:23.329Z,1.65
2018-12-21T23:06:51.870Z,2.02
2018-12-21T23:09:20.375Z,2.02
2018-12-21T23:11:48.921Z,2.70
2018-12-21T23:14:17.394Z,1.55
2018-12-21T23:16:45.905Z,2.00
2018-12-21T23:19:14.388Z,2.50
2018-12-21T23:21:43.023Z,1.60
2018-12-21T23:24:11.535Z,2.00
2018-12-21T23:26:40.011Z,2.52
2018-12-21T23:29:08.490Z,2.58
2018-12-21T23:31:36.987Z,2.20
2018-12-21T23:34:05.538Z,1.70
2018-12-21T23:36:34.028Z,2.50
2018-12-21T23:39:02.512Z,2.20
2018-12-21T23:41:31.024Z,2.05
2018-12-21T23:43:59.528Z,1.80
2018-12-21T23:46:28.051Z,2.00
2018-12-21T23:48:56.552Z,2.27
2018-12-21T23:51:25.095Z,2.00
2018-12-21T23:53:53.592Z,2.30
2018-12-21T23:56:22.128Z,2.45
2018-12-21T23:58:50.657Z,2.15
